createdAt,value
2017-07-09T00:00:28.254Z,85.5
2017-07-09T00:01:27.450Z,85.4
2017-07-09T00:02:26.848Z,85.7
2017-07-09T00:03:26.195Z,85.6
2017-07-09T00:04:25.755Z,85.7
2017-07-09T00:05:24.933Z,85.9
2017-07-09T00:06:24.507Z,85.5
2017-07-09T00:07:23.689Z,85.4
2017-07-09T00:08:23.254Z,85.9
2017-07-09T00:09:22.331Z,85.7
2017-07-09T00:10:21.787Z,85.7
2017-07-09T00:11:20.997Z,85.4
2017-07-09T00:12:20.323Z,85.4
2017-07-09T00:13:19.393Z,85.5
2017-07-09T00:14:19.102Z,85.8
2017-07-09T00:15:18.309Z,85.9
2017-07-09T00:16:17.628Z,86.4
2017-07-09T00:17:17.316Z,86.2
2017-07-09T00:18:16.497Z,86.5
2017-07-09T00:19:15.578Z,86.1
2017-07-09T00:20:15.068Z,86.2
2017-07-09T00:21:14.650Z,85.7
2017-07-09T00:22:13.461Z,85.6
2017-07-09T00:23:13.029Z,85.5
2017-07-09T00:24:12.608Z,85.4
2017-07-09T00:25:11.801Z,85.2
2017-07-09T00:26:11.936Z,85.3
2017-07-09T00:27:10.631Z,85.5
2017-07-09T00:28:10.080Z,85.8
2017-07-09T00:29:09.164Z,85.8
2017-07-09T00:30:08.604Z,86.2
2017-07-09T00:31:07.928Z,86.1
2017-07-09T00:32:07.002Z,86.4
2017-07-09T00:33:06.691Z,85.9
2017-07-09T00:34:06.011Z,85.4
2017-07-09T00:35:05.211Z,85.6
2017-07-09T00:36:04.776Z,85.6
2017-07-09T00:37:03.844Z,85.5
2017-07-09T00:38:03.286Z,85.5
2017-07-09T00:39:02.606Z,85.4
2017-07-09T00:40:01.915Z,85.4
2017-07-09T00:41:01.301Z,85.4
2017-07-09T00:42:00.379Z,85
2017-07-09T00:42:59.656Z,85.9
2017-07-09T00:43:59.480Z,85.8
2017-07-09T00:44:58.430Z,85.3
2017-07-09T00:45:57.998Z,84.9
2017-07-09T00:46:57.569Z,84.5
2017-07-09T00:47:56.639Z,85
2017-07-09T00:48:56.212Z,85.7
2017-07-09T00:49:55.270Z,85
2017-07-09T00:50:54.783Z,84.8
2017-07-09T00:51:53.982Z,84.6
2017-07-09T00:52:53.431Z,84.5
2017-07-09T00:53:24.059Z,84.5
2017-07-09T00:54:52.066Z,85.1
2017-07-09T00:55:51.519Z,84.9
2017-07-09T00:56:50.708Z,84.4
2017-07-09T00:57:50.019Z,84.7
2017-07-09T00:58:49.452Z,84.8
2017-07-09T00:59:48.838Z,84.9
2017-07-09T01:00:48.287Z,85
2017-07-09T01:01:47.233Z,85.1
2017-07-09T01:02:46.566Z,85.3
2017-07-09T01:03:46.016Z,85.5
2017-07-09T01:04:45.707Z,85.4
2017-07-09T01:05:44.776Z,85.1
2017-07-09T01:06:44.030Z,85.3
2017-07-09T01:07:43.739Z,85.4
2017-07-09T01:08:42.802Z,85.1
2017-07-09T01:09:41.986Z,85.5
2017-07-09T01:10:41.560Z,85.6
2017-07-09T01:11:41.000Z,85.6
2017-07-09T01:12:40.442Z,85.3
2017-07-09T01:13:39.517Z,85.4
2017-07-09T01:14:38.961Z,85.3
2017-07-09T01:15:38.402Z,85.2
2017-07-09T01:16:37.473Z,85.1
2017-07-09T01:17:36.915Z,85.2
2017-07-09T01:18:36.500Z,85.2
2017-07-09T01:19:35.698Z,85.3
2017-07-09T01:20:34.901Z,85.6
2017-07-09T01:21:34.342Z,86
2017-07-09T01:22:33.418Z,85.5
2017-07-09T01:23:32.992Z,85.1
2017-07-09T01:24:32.423Z,85.2
2017-07-09T01:25:31.800Z,85.3
2017-07-09T01:26:30.879Z,85.5
2017-07-09T01:27:30.335Z,85.3
2017-07-09T01:28:29.776Z,85.2
2017-07-09T01:29:28.724Z,85.1
2017-07-09T01:30:28.186Z,85.4
2017-07-09T01:31:27.648Z,85.2
2017-07-09T01:31:58.029Z,85.2
2017-07-09T01:32:28.399Z,85.1
2017-07-09T01:33:26.210Z,85.3
2017-07-09T01:34:25.406Z,85.5
2017-07-09T01:35:24.989Z,85.3
2017-07-09T01:37:23.700Z,86
2017-07-09T01:38:23.147Z,85.7
2017-07-09T01:39:22.479Z,85.4
2017-07-09T01:40:21.923Z,85.9
2017-07-09T01:41:20.983Z,86
2017-07-09T01:42:20.690Z,85.4
2017-07-09T01:43:19.876Z,85.5
2017-07-09T01:44:19.075Z,85.3
2017-07-09T01:45:18.397Z,85.3
2017-07-09T01:46:17.842Z,85.5
2017-07-09T01:47:17.039Z,85.5
2017-07-09T01:48:16.604Z,85.6
2017-07-09T01:49:15.908Z,85.8
2017-07-09T01:50:15.218Z,85.7
2017-07-09T01:51:14.542Z,85.7
2017-07-09T01:52:13.614Z,85.5
2017-07-09T01:53:13.193Z,85.5
2017-07-09T01:54:12.811Z,85.4
2017-07-09T01:55:11.763Z,85.6
2017-07-09T01:57:10.718Z,85.7
2017-07-09T01:58:09.803Z,85.5
2017-07-09T01:59:09.000Z,85.4
2017-07-09T02:00:08.698Z,85.9
2017-07-09T02:01:07.892Z,86.3
2017-07-09T02:02:07.078Z,86.6
2017-07-09T02:03:06.784Z,86.6
2017-07-09T02:03:37.174Z,86.6
2017-07-09T02:05:05.444Z,86.3
2017-07-09T02:06:04.642Z,86.2
2017-07-09T02:07:03.985Z,86.2
2017-07-09T02:08:03.440Z,86
2017-07-09T02:09:02.513Z,86.5
2017-07-09T02:10:01.962Z,86.6
2017-07-09T02:11:01.136Z,86.4
2017-07-09T02:12:00.828Z,87.1
2017-07-09T02:12:59.769Z,87
2017-07-09T02:13:59.347Z,86.7
2017-07-09T02:14:58.540Z,86.6
2017-07-09T02:15:57.866Z,86.8
2017-07-09T02:16:57.686Z,86.5
2017-07-09T02:17:56.760Z,86.5
2017-07-09T02:18:56.205Z,86.4
2017-07-09T02:19:55.271Z,86.6
2017-07-09T02:20:54.598Z,86.6
2017-07-09T02:21:54.163Z,86.4
2017-07-09T02:22:53.172Z,86.4
2017-07-09T02:23:52.868Z,86.3
2017-07-09T02:24:51.924Z,86.5
2017-07-09T02:25:22.677Z,86.5
2017-07-09T02:25:53.064Z,86.8
2017-07-09T02:26:23.438Z,86.8
2017-07-09T02:26:53.954Z,86.5
2017-07-09T02:27:49.994Z,86.3
2017-07-09T02:28:49.323Z,86.4
2017-07-09T02:29:48.644Z,86.5
2017-07-09T02:30:48.092Z,86.5
2017-07-09T02:32:46.669Z,87
2017-07-09T02:33:46.188Z,87.1
2017-07-09T02:34:45.260Z,87.3
2017-07-09T02:36:44.212Z,87.3
2017-07-09T02:37:43.530Z,87.3
2017-07-09T02:38:42.583Z,87.1
2017-07-09T02:39:42.274Z,86.8
2017-07-09T02:40:41.594Z,87
2017-07-09T02:41:41.036Z,87
2017-07-09T02:42:40.474Z,86.9
2017-07-09T02:43:39.420Z,86.8
2017-07-09T02:44:38.871Z,86.9
2017-07-09T02:45:38.063Z,87.2
2017-07-09T02:46:08.572Z,87.2
2017-07-09T02:46:39.078Z,87.7
2017-07-09T02:47:36.626Z,87.4
2017-07-09T02:48:36.329Z,87.3
2017-07-09T02:49:35.777Z,87.5
2017-07-09T02:50:34.852Z,87.5
2017-07-09T02:51:34.295Z,88.1
2017-07-09T02:52:33.755Z,87.8
2017-07-09T02:53:32.824Z,87.6
2017-07-09T02:54:32.154Z,87.5
2017-07-09T02:55:31.477Z,87.3
2017-07-09T02:56:31.179Z,87.6
2017-07-09T02:57:30.406Z,87.7
2017-07-09T02:58:29.616Z,87.9
2017-07-09T02:59:29.189Z,88
2017-07-09T03:00:28.251Z,87.8
2017-07-09T03:01:27.705Z,88
2017-07-09T03:02:26.662Z,87.7
2017-07-09T03:03:26.360Z,87.8
2017-07-09T03:04:25.679Z,87.6
2017-07-09T03:05:25.136Z,87.7
2017-07-09T03:06:24.328Z,87.8
2017-07-09T03:07:23.640Z,88.1
2017-07-09T03:08:22.959Z,88.4
2017-07-09T03:09:22.280Z,88.1
2017-07-09T03:10:21.467Z,88.2
2017-07-09T03:11:21.045Z,88.1
2017-07-09T03:12:20.002Z,87.8
2017-07-09T03:13:19.452Z,87.9
2017-07-09T03:14:18.777Z,87.9
2017-07-09T03:15:18.124Z,88
2017-07-09T03:16:17.451Z,87.7
2017-07-09T03:17:16.641Z,87.4
2017-07-09T03:18:15.956Z,87.4
2017-07-09T03:19:15.770Z,87.7
2017-07-09T03:20:14.963Z,87.5
2017-07-09T03:22:13.313Z,87.4
2017-07-09T03:23:12.766Z,87.4
2017-07-09T03:24:12.202Z,87.6
2017-07-09T03:25:11.524Z,87.9
2017-07-09T03:26:10.968Z,87.7
2017-07-09T03:27:10.167Z,87.4
2017-07-09T03:28:09.757Z,87.4
2017-07-09T03:29:09.209Z,88
2017-07-09T03:30:08.522Z,88.2
2017-07-09T03:31:07.581Z,87.7
2017-07-09T03:32:06.900Z,87.6
2017-07-09T03:33:05.964Z,88.1
2017-07-09T03:34:05.419Z,87.8
2017-07-09T03:35:05.012Z,87.5
2017-07-09T03:36:04.446Z,87.9
2017-07-09T03:37:03.640Z,87.3
2017-07-09T03:38:03.077Z,87.3
2017-07-09T03:39:02.393Z,87.7
2017-07-09T03:40:01.717Z,87.1
2017-07-09T03:41:01.032Z,86.9
2017-07-09T03:42:00.099Z,86.8
2017-07-09T03:42:59.783Z,87
2017-07-09T03:43:58.841Z,87.1
2017-07-09T03:44:58.531Z,87.1
2017-07-09T03:45:57.848Z,87.2
2017-07-09T03:46:56.674Z,87.3
2017-07-09T03:47:56.251Z,87.2
2017-07-09T03:48:55.448Z,87.1
2017-07-09T03:49:54.887Z,87.3
2017-07-09T03:50:54.467Z,87.2
2017-07-09T03:51:24.729Z,87.2
2017-07-09T03:51:54.979Z,87.2
2017-07-09T03:52:25.494Z,87.2
2017-07-09T03:52:55.995Z,86.9
2017-07-09T03:53:26.507Z,86.9
2017-07-09T03:55:50.758Z,87.3
2017-07-09T03:56:49.960Z,86.8
2017-07-09T03:57:50.349Z,86.5
2017-07-09T03:58:48.921Z,86.6
2017-07-09T03:59:48.249Z,86.7
2017-07-09T04:00:47.566Z,87
2017-07-09T04:01:46.768Z,87.4
2017-07-09T04:02:46.365Z,87.2
2017-07-09T04:03:45.349Z,87.2
2017-07-09T04:04:44.925Z,87.3
2017-07-09T04:05:44.253Z,87.2
2017-07-09T04:06:43.460Z,87.3
2017-07-09T04:07:42.781Z,87.4
2017-07-09T04:08:42.234Z,87.5
2017-07-09T04:09:41.813Z,86.9
2017-07-09T04:10:41.016Z,87
2017-07-09T04:11:40.585Z,87.3
2017-07-09T04:12:39.531Z,87.3
2017-07-09T04:13:38.723Z,86.8
2017-07-09T04:14:38.290Z,87.3
2017-07-09T04:15:37.871Z,87.2
2017-07-09T04:16:37.062Z,87.1
2017-07-09T04:17:36.389Z,87.3
2017-07-09T04:18:35.533Z,87.2
2017-07-09T04:19:35.100Z,87.2
2017-07-09T04:20:34.053Z,87.3
2017-07-09T04:21:33.382Z,87.4
2017-07-09T04:22:33.084Z,87.1
2017-07-09T04:24:31.791Z,87.6
2017-07-09T04:25:31.099Z,87.5
2017-07-09T04:26:30.169Z,87.5
2017-07-09T04:27:29.612Z,87.4
2017-07-09T04:28:28.926Z,87.7
2017-07-09T04:29:28.370Z,87.7
2017-07-09T04:30:27.821Z,87.7
2017-07-09T04:31:27.135Z,87.6
2017-07-09T04:32:26.343Z,87.6
2017-07-09T04:33:25.415Z,87.8
2017-07-09T04:34:24.983Z,87.9
2017-07-09T04:35:24.553Z,88.1
2017-07-09T04:36:23.743Z,88
2017-07-09T04:37:23.204Z,87.8
2017-07-09T04:38:22.272Z,87.9
2017-07-09T04:39:21.715Z,88.4
2017-07-09T04:40:21.290Z,88.6
2017-07-09T04:41:20.109Z,88.3
2017-07-09T04:42:19.559Z,89
2017-07-09T04:43:18.882Z,88.5
2017-07-09T04:43:49.388Z,88.5
2017-07-09T04:44:20.028Z,88.1
2017-07-09T04:44:50.421Z,88.1
2017-07-09T04:46:17.164Z,87.9
2017-07-09T04:47:16.480Z,88
2017-07-09T04:48:15.799Z,88.6
2017-07-09T04:49:15.249Z,88.5
2017-07-09T04:50:14.698Z,88.4
2017-07-09T04:51:13.508Z,88.2
2017-07-09T04:52:12.959Z,87.9
2017-07-09T04:53:12.412Z,88.2
2017-07-09T04:54:11.612Z,88.3
2017-07-09T04:55:11.185Z,88.3
2017-07-09T04:56:10.509Z,88.4
2017-07-09T04:57:09.831Z,88.6
2017-07-09T04:58:08.886Z,88.5
2017-07-09T04:59:08.457Z,88.7
2017-07-09T05:00:07.780Z,88.7
2017-07-09T05:01:07.113Z,88.6
2017-07-09T05:02:06.180Z,88.6
2017-07-09T05:03:05.621Z,88.8
2017-07-09T05:04:05.067Z,88.8
2017-07-09T05:05:04.261Z,89
2017-07-09T05:06:03.698Z,89
2017-07-09T05:07:03.325Z,88.9
2017-07-09T05:08:02.385Z,88.7
2017-07-09T05:09:01.965Z,88.4
2017-07-09T05:10:00.904Z,88.5
2017-07-09T05:11:00.226Z,88.4
2017-07-09T05:12:00.053Z,88.2
2017-07-09T05:12:59.250Z,88.4
2017-07-09T05:13:58.563Z,88.7
2017-07-09T05:14:57.943Z,88.8
2017-07-09T05:15:57.389Z,88.8
2017-07-09T05:16:56.467Z,88.7
2017-07-09T05:17:55.792Z,88.7
2017-07-09T05:18:55.114Z,88.9
2017-07-09T05:19:54.442Z,88.3
2017-07-09T05:20:53.761Z,88.5
2017-07-09T05:21:53.467Z,88.5
2017-07-09T05:22:52.279Z,88.6
2017-07-09T05:23:51.648Z,88.5
2017-07-09T05:25:50.605Z,88.5
2017-07-09T05:26:50.040Z,88.5
2017-07-09T05:27:49.238Z,88.5
2017-07-09T05:28:48.439Z,88.4
2017-07-09T05:29:48.023Z,88.5
2017-07-09T05:31:46.850Z,88.6
2017-07-09T05:32:45.783Z,89
2017-07-09T05:33:44.972Z,89
2017-07-09T05:35:43.937Z,89
2017-07-09T05:36:43.513Z,89.2
2017-07-09T05:37:42.466Z,89
2017-07-09T05:38:41.785Z,88.6
2017-07-09T05:39:41.236Z,88.3
2017-07-09T05:40:11.679Z,88.3
2017-07-09T05:40:41.950Z,88
2017-07-09T05:41:12.479Z,88
2017-07-09T05:42:39.233Z,88.4
2017-07-09T05:43:38.694Z,87.8
2017-07-09T05:44:37.892Z,87.5
2017-07-09T05:45:37.338Z,87.8
2017-07-09T05:46:36.709Z,87.7
2017-07-09T05:47:36.039Z,87.7
2017-07-09T05:48:36.075Z,87.1
2017-07-09T05:49:34.903Z,86.8
2017-07-09T05:50:34.220Z,87
2017-07-09T05:51:33.663Z,87.3
2017-07-09T05:52:03.788Z,87.3
2017-07-09T05:52:34.041Z,87.1
2017-07-09T05:53:04.291Z,87.1
2017-07-09T05:54:31.545Z,86.5
2017-07-09T05:55:30.869Z,86.4
2017-07-09T05:56:30.310Z,86.9
2017-07-09T05:57:29.812Z,86.8
2017-07-09T05:58:29.140Z,86.3
2017-07-09T05:59:28.084Z,86.4
2017-07-09T06:00:27.665Z,86.7
2017-07-09T06:01:27.110Z,86.7
2017-07-09T06:02:26.302Z,86.3
2017-07-09T06:03:25.492Z,86.4
2017-07-09T06:04:24.814Z,86.3
2017-07-09T06:05:24.268Z,86.9
2017-07-09T06:06:23.849Z,87.3
2017-07-09T06:07:22.794Z,87.1
2017-07-09T06:08:22.378Z,87.3
2017-07-09T06:09:21.382Z,86.6
2017-07-09T06:10:21.766Z,86.1
2017-07-09T06:10:51.409Z,86.1
2017-07-09T06:11:21.807Z,86.2
2017-07-09T06:11:52.307Z,86.2
2017-07-09T06:12:22.947Z,86.3
2017-07-09T06:12:53.200Z,86.3
2017-07-09T06:14:18.312Z,86.7
2017-07-09T06:15:17.882Z,86.9
2017-07-09T06:16:16.956Z,87
2017-07-09T06:17:16.663Z,86.2
2017-07-09T06:18:15.660Z,86.3
2017-07-09T06:19:14.993Z,86.7
2017-07-09T06:20:14.449Z,86.7
2017-07-09T06:21:13.772Z,87
2017-07-09T06:22:13.345Z,87.3
2017-07-09T06:23:12.534Z,87
2017-07-09T06:24:11.717Z,87.4
2017-07-09T06:25:11.157Z,87.5
2017-07-09T06:27:10.114Z,87.2
2017-07-09T06:28:09.431Z,87.3
2017-07-09T06:29:08.366Z,87.9
2017-07-09T06:30:08.183Z,87.6
2017-07-09T06:31:07.253Z,86.8
2017-07-09T06:32:06.834Z,86.6
2017-07-09T06:33:06.147Z,86.8
2017-07-09T06:33:36.648Z,86.8
2017-07-09T06:34:07.273Z,86.8
2017-07-09T06:34:37.905Z,86.8
2017-07-09T06:36:03.908Z,86
2017-07-09T06:37:03.612Z,85.8
2017-07-09T06:38:02.692Z,86
2017-07-09T06:39:02.005Z,85.4
2017-07-09T06:41:00.714Z,85.2
2017-07-09T06:42:00.407Z,85.1
2017-07-09T06:42:59.597Z,85
2017-07-09T06:43:58.917Z,84.7
2017-07-09T06:44:58.364Z,84.5
2017-07-09T06:45:57.552Z,84.6
2017-07-09T06:46:57.253Z,85
2017-07-09T06:47:56.206Z,85.1
2017-07-09T06:48:55.650Z,84.3
2017-07-09T06:49:55.234Z,84
2017-07-09T06:50:54.433Z,84.5
2017-07-09T06:51:53.626Z,84
2017-07-09T06:52:53.198Z,84.1
2017-07-09T06:55:51.432Z,85.2
2017-07-09T06:56:50.753Z,85.3
2017-07-09T06:57:49.818Z,84.7
2017-07-09T06:58:49.269Z,84.8
2017-07-09T06:59:48.607Z,84.9
2017-07-09T07:00:48.185Z,84.6
2017-07-09T07:01:47.387Z,83.9
2017-07-09T07:02:47.104Z,83.9
2017-07-09T07:03:46.051Z,83.6
2017-07-09T07:04:45.498Z,83.9
2017-07-09T07:05:44.948Z,84.3
2017-07-09T07:06:44.277Z,83.5
2017-07-09T07:08:43.250Z,83.7
2017-07-09T07:09:42.316Z,83.9
2017-07-09T07:10:42.511Z,84.1
2017-07-09T07:11:41.077Z,84
2017-07-09T07:12:40.535Z,84.2
2017-07-09T07:13:40.109Z,83.6
2017-07-09T07:14:39.292Z,82.9
2017-07-09T07:15:38.623Z,83.6
2017-07-09T07:16:38.212Z,84
2017-07-09T07:18:36.665Z,83.3
2017-07-09T07:19:36.244Z,82.7
2017-07-09T07:20:35.566Z,82.3
2017-07-09T07:21:34.721Z,81.7
2017-07-09T07:22:33.914Z,82.3
2017-07-09T07:23:33.610Z,82.3
2017-07-09T07:24:32.801Z,82.6
2017-07-09T07:25:32.068Z,81.9
2017-07-09T07:26:31.771Z,82.6
2017-07-09T07:27:31.210Z,83
2017-07-09T07:28:30.534Z,82
2017-07-09T07:29:29.608Z,81.5
2017-07-09T07:30:29.046Z,82.2
2017-07-09T07:31:28.376Z,81.4
2017-07-09T07:32:27.688Z,81.8
2017-07-09T07:33:27.120Z,82.1
2017-07-09T07:34:26.564Z,81.4
2017-07-09T07:35:25.750Z,80.8
2017-07-09T07:36:25.188Z,81.1
2017-07-09T07:37:25.002Z,81.7
2017-07-09T07:38:23.943Z,81.7
2017-07-09T07:39:23.401Z,81.4
2017-07-09T07:40:22.978Z,80.6
2017-07-09T07:41:22.297Z,80.2
2017-07-09T07:42:21.620Z,80.5
2017-07-09T07:43:21.062Z,80.7
2017-07-09T07:45:19.894Z,80.2
2017-07-09T07:47:18.611Z,80.9
2017-07-09T07:48:17.819Z,81.5
2017-07-09T07:49:17.142Z,81.1
2017-07-09T07:50:16.466Z,80.4
2017-07-09T07:51:15.778Z,80.1
2017-07-09T07:52:15.341Z,80.8
2017-07-09T07:53:14.659Z,80.9
2017-07-09T07:54:14.235Z,81.4
2017-07-09T07:55:13.795Z,79.8
2017-07-09T07:56:12.751Z,80.8
2017-07-09T07:57:12.488Z,81
2017-07-09T07:58:11.567Z,80.3
2017-07-09T07:59:11.148Z,80.2
2017-07-09T07:59:41.790Z,80.2
2017-07-09T08:00:12.057Z,79.5
2017-07-09T08:00:42.426Z,79.5
2017-07-09T08:01:13.175Z,79.5
2017-07-09T08:01:43.443Z,79.5
2017-07-09T08:02:13.569Z,79.3
2017-07-09T08:03:08.747Z,79.1
2017-07-09T08:04:07.810Z,79.1
2017-07-09T08:05:07.203Z,78.9
2017-07-09T08:06:06.657Z,79.5
2017-07-09T08:07:06.479Z,80
2017-07-09T08:08:05.682Z,79.1
2017-07-09T08:09:05.258Z,79.3
2017-07-09T08:10:04.196Z,79.8
2017-07-09T08:11:03.891Z,80.8
2017-07-09T08:12:03.085Z,81
2017-07-09T08:13:02.270Z,80.4
2017-07-09T08:14:01.842Z,80.2
2017-07-09T08:15:01.167Z,80.8
2017-07-09T08:16:00.981Z,79.9
2017-07-09T08:17:00.180Z,79.6
2017-07-09T08:17:59.371Z,80.2
2017-07-09T08:18:58.689Z,79.3
2017-07-09T08:19:58.145Z,79.3
2017-07-09T08:20:57.349Z,79.6
2017-07-09T08:21:57.292Z,78.6
2017-07-09T08:22:56.600Z,79.5
2017-07-09T08:23:55.786Z,79.2
2017-07-09T08:24:55.111Z,79.5
2017-07-09T08:25:54.939Z,78.4
2017-07-09T08:26:54.033Z,78.5
2017-07-09T08:27:53.356Z,78.8
2017-07-09T08:28:52.684Z,79.1
2017-07-09T08:29:52.129Z,78.5
2017-07-09T08:30:51.954Z,78.6
2017-07-09T08:31:51.020Z,78.5
2017-07-09T08:32:50.723Z,77.9
2017-07-09T08:33:50.030Z,79.1
2017-07-09T08:34:49.341Z,77.9
2017-07-09T08:35:48.938Z,79.2
2017-07-09T08:36:47.891Z,79.6
2017-07-09T08:37:47.479Z,79.6
2017-07-09T08:38:46.809Z,78.5
2017-07-09T08:39:46.373Z,77.3
2017-07-09T08:40:45.819Z,76.7
2017-07-09T08:41:45.275Z,77.5
2017-07-09T08:42:44.351Z,77.7
2017-07-09T08:43:43.683Z,78.1
2017-07-09T08:44:43.260Z,79
2017-07-09T08:45:42.837Z,78
2017-07-09T08:46:42.291Z,77.3
2017-07-09T08:47:41.618Z,78.4
2017-07-09T08:48:40.807Z,78.1
2017-07-09T08:49:40.265Z,77.6
2017-07-09T08:50:40.091Z,77.8
2017-07-09T08:51:39.297Z,77.4
2017-07-09T08:52:38.497Z,78.1
2017-07-09T08:53:37.949Z,78.5
2017-07-09T08:54:37.651Z,78.6
2017-07-09T08:55:07.793Z,78.6
2017-07-09T08:55:38.420Z,77.4
2017-07-09T08:56:36.101Z,77.6
2017-07-09T08:57:35.549Z,78.1
2017-07-09T08:58:35.120Z,77.7
2017-07-09T08:59:34.446Z,77.3
2017-07-09T09:00:34.010Z,77.4
2017-07-09T09:01:33.330Z,77.8
2017-07-09T09:02:32.651Z,76
2017-07-09T09:03:32.096Z,77.9
2017-07-09T09:05:30.808Z,75.9
2017-07-09T09:06:30.272Z,76.1
2017-07-09T09:07:29.736Z,76.3
2017-07-09T09:08:29.318Z,75.2
2017-07-09T09:09:28.780Z,75.5
2017-07-09T09:10:28.223Z,75.9
2017-07-09T09:10:58.545Z,75.9
2017-07-09T09:11:29.053Z,75.7
2017-07-09T09:11:59.186Z,75.7
2017-07-09T09:12:29.816Z,76.1
2017-07-09T09:13:26.303Z,76.3
2017-07-09T09:14:25.740Z,75.9
2017-07-09T09:15:25.046Z,76.4
2017-07-09T09:16:24.362Z,76.7
2017-07-09T09:17:24.053Z,75.9
2017-07-09T09:18:23.256Z,75.9
2017-07-09T09:19:22.700Z,76
2017-07-09T09:20:22.152Z,77.1
2017-07-09T09:21:21.735Z,76.5
2017-07-09T09:22:20.792Z,76.4
2017-07-09T09:23:20.368Z,76.4
2017-07-09T09:24:19.685Z,76.7
2017-07-09T09:25:19.132Z,76.8
2017-07-09T09:26:18.830Z,76.9
2017-07-09T09:27:18.288Z,76.2
2017-07-09T09:28:17.729Z,75.6
2017-07-09T09:29:16.929Z,75.6
2017-07-09T09:30:16.375Z,76
2017-07-09T09:31:15.697Z,75.3
2017-07-09T09:32:15.048Z,76
2017-07-09T09:33:14.746Z,75.8
2017-07-09T09:34:14.063Z,75.9
2017-07-09T09:35:13.241Z,76.3
2017-07-09T09:36:12.938Z,76.5
2017-07-09T09:37:12.130Z,76.8
2017-07-09T09:38:11.828Z,76.7
2017-07-09T09:39:11.011Z,76.9
2017-07-09T09:40:10.517Z,76.8
2017-07-09T09:41:09.705Z,76.4
2017-07-09T09:42:09.539Z,76.5
2017-07-09T09:43:08.993Z,74.9
2017-07-09T09:44:08.057Z,75
2017-07-09T09:45:07.377Z,75.6
2017-07-09T09:46:07.201Z,76.1
2017-07-09T09:47:06.408Z,76.5
2017-07-09T09:48:05.980Z,76.5
2017-07-09T09:49:05.378Z,75.7
2017-07-09T09:50:04.578Z,76.1
2017-07-09T09:51:04.281Z,75.5
2017-07-09T09:52:03.465Z,75.5
2017-07-09T09:53:03.039Z,75
2017-07-09T09:54:02.490Z,74.1
2017-07-09T09:55:01.560Z,73.6
2017-07-09T09:56:01.130Z,73.5
2017-07-09T09:57:00.573Z,73.4
2017-07-09T09:58:00.265Z,74.1
2017-07-09T09:58:59.338Z,74.7
2017-07-09T09:59:58.915Z,74.4
2017-07-09T10:00:58.364Z,74.4
2017-07-09T10:01:57.810Z,75.3
2017-07-09T10:02:57.399Z,75.1
2017-07-09T10:03:56.842Z,75
2017-07-09T10:04:56.051Z,76
2017-07-09T10:05:26.426Z,76
2017-07-09T10:05:56.558Z,73.7
2017-07-09T10:06:54.874Z,73.6
2017-07-09T10:08:53.902Z,74.8
2017-07-09T10:09:53.347Z,74.6
2017-07-09T10:10:52.735Z,74.1
2017-07-09T10:11:52.379Z,73.7
2017-07-09T10:12:51.318Z,74.4
2017-07-09T10:13:50.891Z,74
2017-07-09T10:14:50.336Z,73.9
2017-07-09T10:15:49.916Z,74.4
2017-07-09T10:16:49.219Z,73.7
2017-07-09T10:17:48.798Z,72.9
2017-07-09T10:18:48.128Z,72
2017-07-09T10:19:47.584Z,71.7
2017-07-09T10:20:46.906Z,71.8
2017-07-09T10:21:46.344Z,71.7
2017-07-09T10:22:46.103Z,71.7
2017-07-09T10:23:45.170Z,72.6
2017-07-09T10:24:44.996Z,72.3
2017-07-09T10:25:43.938Z,71
2017-07-09T10:26:43.768Z,71.2
2017-07-09T10:27:43.101Z,71.1
2017-07-09T10:28:42.550Z,70.4
2017-07-09T10:29:42.109Z,70.3
2017-07-09T10:30:41.439Z,70.9
2017-07-09T10:31:41.007Z,71.3
2017-07-09T10:32:40.455Z,72.1
2017-07-09T10:33:39.640Z,71.9
2017-07-09T10:34:39.218Z,71.8
2017-07-09T10:35:38.670Z,71.7
2017-07-09T10:36:38.123Z,72.5
2017-07-09T10:37:37.334Z,71.7
2017-07-09T10:38:37.158Z,71.5
2017-07-09T10:39:36.600Z,70.6
2017-07-09T10:40:36.052Z,70.8
2017-07-09T10:41:35.496Z,70.9
2017-07-09T10:42:34.824Z,71.6
2017-07-09T10:44:33.650Z,69.9
2017-07-09T10:45:33.477Z,70.2
2017-07-09T10:46:32.669Z,69.7
2017-07-09T10:47:32.123Z,70
2017-07-09T10:48:31.571Z,69.9
2017-07-09T10:49:30.883Z,69.7
2017-07-09T10:50:30.580Z,69.7
2017-07-09T10:51:29.902Z,68.9
2017-07-09T10:52:29.355Z,68.9
2017-07-09T10:53:28.801Z,70
2017-07-09T10:54:28.488Z,70.9
2017-07-09T10:55:27.685Z,71.1
2017-07-09T10:56:27.141Z,68.9
2017-07-09T10:57:26.699Z,68.6
2017-07-09T10:58:26.264Z,68.7
2017-07-09T10:59:25.705Z,68.8
2017-07-09T11:00:25.148Z,69.4
2017-07-09T11:00:55.658Z,69.4
2017-07-09T11:02:23.805Z,70.7
2017-07-09T11:03:23.625Z,70.2
2017-07-09T11:04:23.262Z,70.9
2017-07-09T11:05:22.593Z,69.9
2017-07-09T11:06:21.667Z,71
2017-07-09T11:07:21.219Z,71.1
2017-07-09T11:08:21.029Z,70.1
2017-07-09T11:09:20.494Z,68.8
2017-07-09T11:10:19.691Z,67.9
2017-07-09T11:11:19.001Z,67.8
2017-07-09T11:12:18.834Z,67.8
2017-07-09T11:13:18.147Z,68.4
2017-07-09T11:13:48.781Z,68.4
2017-07-09T11:14:19.029Z,69.1
2017-07-09T11:15:17.100Z,68.2
2017-07-09T11:16:16.545Z,68.9
2017-07-09T11:17:15.869Z,69
2017-07-09T11:18:15.445Z,68.9
2017-07-09T11:19:14.891Z,68.3
2017-07-09T11:20:14.725Z,67.8
2017-07-09T11:21:13.923Z,67.7
2017-07-09T11:22:13.499Z,67.7
2017-07-09T11:23:13.076Z,66.3
2017-07-09T11:24:12.156Z,65.8
2017-07-09T11:25:12.227Z,65.7
2017-07-09T11:26:11.560Z,66.2
2017-07-09T11:27:10.998Z,66.5
2017-07-09T11:28:10.454Z,65.4
2017-07-09T11:29:10.143Z,65.6
2017-07-09T11:30:09.329Z,65.6
2017-07-09T11:31:08.897Z,66.7
2017-07-09T11:32:08.473Z,65.8
2017-07-09T11:32:38.744Z,65.8
2017-07-09T11:33:09.519Z,65
2017-07-09T11:33:40.028Z,65
2017-07-09T11:34:10.427Z,63.7
2017-07-09T11:34:40.556Z,63.7
2017-07-09T11:36:06.172Z,64.8
2017-07-09T11:37:05.883Z,64.3
2017-07-09T11:38:05.323Z,64.5
2017-07-09T11:39:05.043Z,64.6
2017-07-09T11:40:04.230Z,64.8
2017-07-09T11:41:03.683Z,65
2017-07-09T11:42:03.125Z,64.4
2017-07-09T11:43:02.867Z,63.1
2017-07-09T11:44:02.429Z,63.5
2017-07-09T11:45:02.002Z,64.3
2017-07-09T11:46:01.313Z,65.4
2017-07-09T11:47:01.152Z,65.1
2017-07-09T11:48:00.351Z,63.3
2017-07-09T11:49:59.569Z,65.4
2017-07-09T11:50:58.879Z,64
2017-07-09T11:51:58.707Z,65
2017-07-09T11:52:57.768Z,62.5
2017-07-09T11:53:57.592Z,62.6
2017-07-09T11:54:57.033Z,61.9
2017-07-09T11:55:56.503Z,62.3
2017-07-09T11:56:55.961Z,62.4
2017-07-09T11:57:55.285Z,62.8
2017-07-09T11:58:55.110Z,62.5
2017-07-09T11:59:54.565Z,62.3
2017-07-09T12:00:54.136Z,61.9
2017-07-09T12:01:53.595Z,63.1
2017-07-09T12:02:53.172Z,63.2
2017-07-09T12:03:52.868Z,61.7
2017-07-09T12:04:52.079Z,60.1
2017-07-09T12:05:51.526Z,62.6
2017-07-09T12:06:51.360Z,60.7
2017-07-09T12:07:50.806Z,62
2017-07-09T12:08:50.139Z,61.5
2017-07-09T12:09:49.836Z,62.1
2017-07-09T12:10:49.305Z,63.1
2017-07-09T12:11:48.753Z,63.5
2017-07-09T12:12:48.581Z,64.1
2017-07-09T12:13:47.782Z,63.7
2017-07-09T12:14:47.360Z,63.3
2017-07-09T12:15:47.200Z,63.7
2017-07-09T12:16:46.530Z,63.8
2017-07-09T12:18:45.556Z,63.1
2017-07-09T12:19:44.869Z,63.2
2017-07-09T12:20:44.951Z,63.2
2017-07-09T12:21:44.154Z,63.3
2017-07-09T12:22:43.606Z,62.2
2017-07-09T12:23:43.305Z,63.7
2017-07-09T12:24:42.869Z,63.4
2017-07-09T12:25:42.450Z,63.3
2017-07-09T12:26:41.893Z,63.2
2017-07-09T12:27:12.142Z,63.2
2017-07-09T12:27:42.645Z,62.5
2017-07-09T12:28:40.968Z,62.8
2017-07-09T12:29:40.414Z,61.8
2017-07-09T12:30:39.993Z,62.7
2017-07-09T12:31:39.575Z,62.1
2017-07-09T12:32:39.286Z,62.7
2017-07-09T12:33:38.856Z,61.2
2017-07-09T12:34:38.173Z,59.5
2017-07-09T12:35:37.881Z,59.7
2017-07-09T12:36:37.103Z,59.9
2017-07-09T12:37:36.908Z,59.5
2017-07-09T12:38:36.353Z,59.5
2017-07-09T12:39:35.690Z,60.3
2017-07-09T12:40:35.261Z,59.9
2017-07-09T12:41:34.712Z,59.1
2017-07-09T12:42:34.662Z,58.2
2017-07-09T12:43:05.299Z,58.2
2017-07-09T12:44:33.323Z,59.1
2017-07-09T12:45:33.160Z,57.8
2017-07-09T12:47:32.303Z,57
2017-07-09T12:48:31.865Z,57.7
2017-07-09T12:49:31.313Z,58.2
2017-07-09T12:50:30.821Z,57.8
2017-07-09T12:51:30.148Z,57.4
2017-07-09T12:52:29.971Z,57
2017-07-09T12:53:29.547Z,56.8
2017-07-09T12:55:28.623Z,57.6
2017-07-09T12:56:28.073Z,58.2
2017-07-09T12:57:27.530Z,59.3
2017-07-09T12:59:27.117Z,57.3
2017-07-09T13:00:26.445Z,57.4
2017-07-09T13:01:25.762Z,58.1
2017-07-09T13:02:25.321Z,58.7
2017-07-09T13:03:25.387Z,56.8
2017-07-09T13:04:24.966Z,56.2
2017-07-09T13:05:24.214Z,55.7
2017-07-09T13:06:24.163Z,54.6
2017-07-09T13:07:23.492Z,55.3
2017-07-09T13:08:22.884Z,55.9
2017-07-09T13:09:22.337Z,56
2017-07-09T13:10:22.295Z,54.4
2017-07-09T13:11:21.617Z,54.3
2017-07-09T13:12:21.311Z,54.1
2017-07-09T13:13:20.881Z,55.1
2017-07-09T13:14:20.397Z,55.9
2017-07-09T13:15:19.729Z,54.8
2017-07-09T13:16:19.684Z,53.3
2017-07-09T13:17:19.382Z,53.5
2017-07-09T13:18:18.753Z,53.7